Time;durP1;ratioP1;P1;durP2;ratioP2;P2;SDS_P1;SDS_P2;PMS_P1;PMS_P2;Temp;Humidity;BMP_temperature;BMP_pressure;BME280_temperature;BME280_humidity;BME280_pressure;Samples;Min_cycle;Max_cycle;Signal;HPM_P1;HPM_P2
2022/08/15 00:01:26;;;;;;;9.45;7.00;;;23.80;99.90;;;;;;5029995;28;20045;-72
2022/08/15 00:03:57;;;;;;;9.07;6.82;;;23.90;99.70;;;;;;5029525;28;20511;-71
2022/08/15 00:06:34;;;;;;;8.57;7.10;;;23.90;99.90;;;;;;5031073;28;20540;-71
2022/08/15 00:09:06;;;;;;;10.20;7.82;;;23.70;99.90;;;;;;5031128;28;20043;-72
2022/08/15 00:11:36;;;;;;;8.77;7.80;;;24.50;99.90;;;;;;5030891;28;20103;-72
2022/08/15 00:14:07;;;;;;;9.23;8.10;;;24.20;99.90;;;;;;5029520;28;20041;-72
2022/08/15 00:16:36;;;;;;;8.33;7.43;;;23.90;99.90;;;;;;5029583;28;20034;-72
2022/08/15 00:19:09;;;;;;;8.50;7.70;;;24.10;99.90;;;;;;5029566;28;20060;-72
2022/08/15 00:21:37;;;;;;;8.48;7.68;;;23.90;99.90;;;;;;5029909;28;20119;-72
2022/08/15 00:24:04;;;;;;;14.52;8.27;;;23.60;99.90;;;;;;5029053;28;20120;-72
2022/08/15 00:26:29;;;;;;;10.27;7.53;;;23.80;99.90;;;;;;5029757;28;20037;-72
2022/08/15 00:28:55;;;;;;;9.98;7.82;;;23.80;99.90;;;;;;5012968;28;20045;-72
2022/08/15 00:31:21;;;;;;;9.57;8.35;;;25.40;99.90;;;;;;5030741;28;20037;-72
2022/08/15 00:33:47;;;;;;;10.57;8.48;;;23.80;99.90;;;;;;5029152;28;20120;-71
2022/08/15 00:36:14;;;;;;;9.77;8.43;;;23.70;99.90;;;;;;5029316;28;20460;-72
2022/08/15 00:38:39;;;;;;;9.95;7.75;;;23.90;99.90;;;;;;5029406;28;20047;-71
2022/08/15 00:43:57;;;;;;;10.07;9.02;;;23.60;99.90;;;;;;5029555;28;20045;-72
2022/08/15 00:46:25;;;;;;;9.27;8.15;;;23.40;99.90;;;;;;5029885;28;20143;-72
2022/08/15 00:48:51;;;;;;;11.13;8.52;;;23.20;99.90;;;;;;5031123;28;20030;-71
2022/08/15 00:51:20;;;;;;;11.50;8.73;;;24.50;99.90;;;;;;5029795;28;20046;-71
2022/08/15 00:53:55;;;;;;;10.57;8.38;;;23.40;99.90;;;;;;5013025;28;20044;-71
2022/08/15 00:56:24;;;;;;;10.60;7.70;;;23.40;99.90;;;;;;5013371;28;20029;-72
2022/08/15 00:58:50;;;;;;;11.43;8.45;;;23.40;99.90;;;;;;5034209;28;20487;-71
2022/08/15 01:01:17;;;;;;;9.32;8.43;;;23.90;99.90;;;;;;5034505;28;20064;-71
2022/08/15 01:03:45;;;;;;;13.95;9.20;;;23.20;99.90;;;;;;5034656;28;20045;-72
2022/08/15 01:06:11;;;;;;;11.43;8.60;;;24.80;99.90;;;;;;5034516;28;20095;-71
2022/08/15 01:08:40;;;;;;;9.23;8.10;;;23.40;99.90;;;;;;5033224;28;20496;-71
2022/08/15 01:11:17;;;;;;;14.63;10.07;;;23.50;99.90;;;;;;5016889;28;20174;-71
2022/08/15 01:13:44;;;;;;;10.57;8.80;;;23.10;99.90;;;;;;5034292;28;20041;-71
2022/08/15 01:16:10;;;;;;;10.32;8.75;;;23.60;99.90;;;;;;5032949;28;20068;-71
2022/08/15 01:18:37;;;;;;;10.98;9.38;;;23.00;99.90;;;;;;5033044;28;20033;-71
2022/08/15 01:21:24;;;;;;;10.95;8.38;;;23.60;99.90;;;;;;5034443;28;20033;-71
2022/08/15 01:24:02;;;;;;;11.18;9.70;;;24.10;99.90;;;;;;5032959;28;20398;-71
2022/08/15 01:26:28;;;;;;;12.77;10.38;;;23.20;99.90;;;;;;5032870;28;20088;-71
2022/08/15 01:28:55;;;;;;;10.85;9.55;;;23.80;99.90;;;;;;5032870;28;20518;-72
2022/08/15 01:31:25;;;;;;;13.00;9.63;;;22.90;99.90;;;;;;5016328;28;20077;-71
2022/08/15 01:33:59;;;;;;;11.35;9.73;;;22.80;99.90;;;;;;5032507;28;20037;-71
2022/08/15 01:36:28;;;;;;;11.35;9.60;;;22.80;99.90;;;;;;5032977;28;20044;-71
2022/08/15 01:39:14;;;;;;;13.05;9.63;;;22.90;99.90;;;;;;5032903;28;20472;-71
2022/08/15 01:42:01;;;;;;;12.02;9.65;;;22.80;99.90;;;;;;5032902;28;20049;-71
2022/08/15 01:44:37;;;;;;;10.45;9.20;;;22.80;99.90;;;;;;5032549;28;20136;-71
2022/08/15 01:47:19;;;;;;;13.90;9.88;;;22.50;99.90;;;;;;5032713;28;20380;-71
2022/08/15 01:50:11;;;;;;;12.30;9.23;;;22.80;99.90;;;;;;5032462;28;20462;-71
2022/08/15 01:52:42;;;;;;;11.43;9.70;;;22.60;99.90;;;;;;5032138;28;20053;-71
2022/08/15 01:55:09;;;;;;;13.18;9.98;;;22.90;99.90;;;;;;5033405;28;20103;-71
2022/08/15 01:57:35;;;;;;;10.52;9.43;;;22.60;99.90;;;;;;5015799;28;20073;-71
2022/08/15 02:00:03;;;;;;;12.43;10.70;;;23.40;99.90;;;;;;5015954;28;20087;-71
2022/08/15 02:02:29;;;;;;;14.30;10.82;;;22.60;99.90;;;;;;5032423;28;20546;-71
2022/08/15 02:04:55;;;;;;;11.95;10.25;;;23.90;99.90;;;;;;5032078;28;20037;-70
2022/08/15 02:07:25;;;;;;;13.25;11.82;;;22.30;99.90;;;;;;5033448;28;20099;-71
2022/08/15 02:09:52;;;;;;;14.45;10.95;;;23.80;99.90;;;;;;5032558;28;20053;-71
2022/08/15 02:12:24;;;;;;;11.50;10.30;;;22.40;99.90;;;;;;5031618;28;20087;-71
2022/08/15 02:14:49;;;;;;;13.60;11.52;;;22.30;99.90;;;;;;5031570;28;20029;-71
2022/08/15 02:17:16;;;;;;;15.95;12.13;;;22.30;99.90;;;;;;5031917;28;20495;-71
2022/08/15 02:19:45;;;;;;;16.10;11.57;;;22.60;99.90;;;;;;5033035;28;20128;-71
2022/08/15 02:22:12;;;;;;;11.73;10.55;;;22.20;99.90;;;;;;5032805;28;20116;-71
2022/08/15 02:24:39;;;;;;;13.75;11.25;;;22.30;99.90;;;;;;5014950;28;20049;-70
2022/08/15 02:27:05;;;;;;;16.58;11.52;;;22.20;99.90;;;;;;5031518;28;20128;-71
2022/08/15 02:29:31;;;;;;;14.05;11.40;;;22.20;99.90;;;;;;5031497;28;20053;-70
2022/08/15 02:32:00;;;;;;;16.08;12.20;;;22.90;99.90;;;;;;5032723;28;20458;-71
2022/08/15 02:34:27;;;;;;;15.73;12.73;;;23.20;99.90;;;;;;5032574;28;20033;-70
2022/08/15 02:36:53;;;;;;;16.67;13.07;;;22.50;99.90;;;;;;5032637;28;20072;-71
2022/08/15 02:39:19;;;;;;;15.20;12.68;;;22.20;99.90;;;;;;5032592;28;20123;-71
2022/08/15 02:41:50;;;;;;;17.80;14.75;;;22.80;99.90;;;;;;5032926;28;20037;-71
2022/08/15 02:44:20;;;;;;;17.92;14.20;;;22.40;99.90;;;;;;5032483;28;20053;-71
2022/08/15 02:46:48;;;;;;;17.45;14.13;;;22.80;99.90;;;;;;5015235;28;20407;-71
2022/08/15 02:49:14;;;;;;;15.40;12.80;;;22.20;99.90;;;;;;5032662;28;20124;-71
2022/08/15 02:51:40;;;;;;;16.17;12.23;;;22.50;99.90;;;;;;5032514;28;20046;-71
2022/08/15 02:54:08;;;;;;;16.88;12.57;;;23.20;99.90;;;;;;5014242;28;20402;-71
2022/08/15 02:56:34;;;;;;;14.95;12.63;;;22.40;99.90;;;;;;5031425;28;20091;-70
2022/08/15 02:59:00;;;;;;;20.77;13.00;;;22.40;99.90;;;;;;5014768;28;20034;-71
2022/08/15 03:01:27;;;;;;;15.43;12.52;;;22.20;99.90;;;;;;5031046;28;20038;-71
2022/08/15 03:03:54;;;;;;;17.52;11.98;;;23.60;99.90;;;;;;5032053;28;20042;-71
2022/08/15 03:06:25;;;;;;;15.77;11.98;;;22.20;99.90;;;;;;5032279;28;20051;-71
2022/08/15 03:08:50;;;;;;;15.23;12.00;;;22.00;99.90;;;;;;5032580;28;20041;-71
2022/08/15 03:11:17;;;;;;;12.60;11.30;;;22.40;99.90;;;;;;5031083;28;20451;-71
2022/08/15 03:13:42;;;;;;;17.55;13.82;;;22.50;99.90;;;;;;5030683;28;20045;-71
2022/08/15 03:16:10;;;;;;;16.75;12.75;;;22.60;99.90;;;;;;5030770;28;20403;-71
2022/08/15 03:18:38;;;;;;;18.10;14.05;;;23.20;99.90;;;;;;5030811;28;20090;-71
2022/08/15 03:21:06;;;;;;;14.55;12.85;;;22.90;99.90;;;;;;5030689;28;20048;-71
2022/08/15 03:23:32;;;;;;;15.77;13.55;;;23.00;99.90;;;;;;5030928;28;20106;-71
2022/08/15 03:26:00;;;;;;;17.55;14.30;;;22.30;99.90;;;;;;5031881;28;20467;-71
2022/08/15 03:28:31;;;;;;;18.38;14.07;;;22.40;99.90;;;;;;5032027;28;20042;-71
2022/08/15 03:31:02;;;;;;;15.75;13.27;;;22.10;99.90;;;;;;5030753;28;20045;-71
2022/08/15 03:33:29;;;;;;;16.42;13.13;;;22.20;99.90;;;;;;5031581;28;20171;-71
2022/08/15 03:35:55;;;;;;;18.52;14.95;;;22.80;99.90;;;;;;5030663;28;20045;-71
2022/08/15 03:38:21;;;;;;;17.77;13.88;;;23.10;99.90;;;;;;5030591;28;20033;-71
2022/08/15 03:40:48;;;;;;;19.05;13.55;;;22.20;99.90;;;;;;5031806;28;20034;-71
2022/08/15 03:43:27;;;;;;;19.10;14.20;;;22.10;99.90;;;;;;5030470;28;20053;-71
2022/08/15 03:45:56;;;;;;;22.67;15.15;;;22.10;99.90;;;;;;5031555;28;20388;-71
2022/08/15 03:48:24;;;;;;;17.88;14.18;;;21.90;99.90;;;;;;5030427;28;20041;-71
2022/08/15 03:50:52;;;;;;;16.63;13.32;;;22.00;99.90;;;;;;5013926;28;20045;-71
2022/08/15 03:53:18;;;;;;;16.83;13.32;;;21.90;99.90;;;;;;5030101;28;20043;-71
2022/08/15 03:55:44;;;;;;;18.10;14.52;;;21.80;99.90;;;;;;5030192;28;20120;-71
2022/08/15 03:58:11;;;;;;;17.13;14.98;;;22.00;99.90;;;;;;5030492;28;20121;-71
2022/08/15 04:00:44;;;;;;;19.33;15.43;;;22.50;99.90;;;;;;5031616;28;20091;-71
2022/08/15 04:03:14;;;;;;;31.38;15.20;;;21.80;99.90;;;;;;5030503;28;20102;-71
2022/08/15 04:05:43;;;;;;;18.65;16.65;;;21.90;99.90;;;;;;5031495;28;20033;-71
2022/08/15 04:08:10;;;;;;;20.30;17.15;;;22.40;99.90;;;;;;5013876;28;20084;-71
2022/08/15 04:10:37;;;;;;;17.33;15.30;;;21.70;99.90;;;;;;5030224;28;20060;-71
2022/08/15 04:13:06;;;;;;;18.73;16.55;;;22.60;99.90;;;;;;5029993;28;20479;-71
2022/08/15 04:15:33;;;;;;;23.88;17.77;;;21.90;99.90;;;;;;5031386;28;20048;-71
2022/08/15 04:18:00;;;;;;;18.25;16.13;;;22.30;99.90;;;;;;5030168;28;20561;-71
2022/08/15 04:20:25;;;;;;;20.48;16.42;;;22.40;99.90;;;;;;5030493;28;20041;-71
2022/08/15 04:22:51;;;;;;;18.98;15.57;;;21.60;99.90;;;;;;5030389;28;20045;-71
2022/08/15 04:25:27;;;;;;;21.00;15.82;;;22.70;99.90;;;;;;5029959;28;20503;-71
2022/08/15 04:27:55;;;;;;;22.40;17.52;;;21.60;99.90;;;;;;5030531;28;20372;-71
2022/08/15 04:30:26;;;;;;;22.05;16.70;;;22.80;99.90;;;;;;5030405;28;20049;-71
2022/08/15 04:32:54;;;;;;;22.67;17.75;;;21.90;99.90;;;;;;5031830;28;20045;-71
2022/08/15 04:35:20;;;;;;;19.83;17.73;;;22.70;99.90;;;;;;5016998;28;20041;-71
2022/08/15 04:37:46;;;;;;;23.88;17.83;;;21.60;99.90;;;;;;5033980;28;20434;-71
2022/08/15 04:40:14;;;;;;;21.02;15.82;;;21.80;99.90;;;;;;5034890;28;20045;-71
2022/08/15 04:42:53;;;;;;;18.98;15.27;;;22.20;99.90;;;;;;5033990;28;20033;-71
2022/08/15 04:45:20;;;;;;;20.10;15.18;;;21.60;99.90;;;;;;5033450;28;20095;-71
2022/08/15 04:47:46;;;;;;;15.80;13.57;;;21.60;99.90;;;;;;5035003;28;20046;-71
2022/08/15 04:50:12;;;;;;;14.95;12.10;;;21.90;99.90;;;;;;5034840;28;20049;-71
2022/08/15 04:52:52;;;;;;;15.32;12.40;;;22.00;99.90;;;;;;5016822;28;20072;-71
2022/08/15 04:55:19;;;;;;;14.88;12.77;;;22.70;99.90;;;;;;5033187;28;20048;-71
2022/08/15 04:57:45;;;;;;;16.77;12.77;;;22.50;99.90;;;;;;5033762;28;20037;-71
2022/08/15 05:00:13;;;;;;;15.07;13.07;;;22.20;99.90;;;;;;5033398;28;20044;-70
2022/08/15 05:02:39;;;;;;;23.15;12.48;;;22.00;99.90;;;;;;5018838;28;20045;-71
2022/08/15 05:05:08;;;;;;;16.95;10.93;;;22.50;99.90;;;;;;5013152;28;20065;-71
2022/08/15 05:07:35;;;;;;;12.30;10.98;;;22.00;99.90;;;;;;4997230;28;20049;-70
2022/08/15 05:10:02;;;;;;;15.40;11.10;;;22.10;99.90;;;;;;5013676;28;20118;-70
2022/08/15 05:12:29;;;;;;;13.27;11.73;;;22.30;99.90;;;;;;5014689;28;20042;-70
2022/08/15 05:14:57;;;;;;;14.00;11.15;;;22.10;99.90;;;;;;4996713;28;20173;-70
2022/08/15 05:17:23;;;;;;;12.18;10.55;;;22.90;99.90;;;;;;5014653;28;20523;-70
2022/08/15 05:19:48;;;;;;;15.20;11.50;;;24.10;99.90;;;;;;5013230;28;20042;-70
2022/08/15 05:22:16;;;;;;;15.05;11.30;;;22.70;99.90;;;;;;5014695;28;20048;-70
2022/08/15 05:24:42;;;;;;;13.40;11.43;;;22.30;99.90;;;;;;5012860;28;20508;-70
2022/08/15 05:27:08;;;;;;;12.20;10.88;;;22.50;99.90;;;;;;5013348;28;20049;-70
2022/08/15 05:29:33;;;;;;;14.57;11.27;;;22.40;99.90;;;;;;5013134;28;20041;-70
2022/08/15 05:31:59;;;;;;;12.15;10.10;;;22.20;99.90;;;;;;4996563;28;20128;-70
2022/08/15 05:34:25;;;;;;;14.00;10.15;;;23.20;99.90;;;;;;5013952;28;20431;-70
2022/08/15 05:36:50;;;;;;;15.75;10.77;;;22.80;99.90;;;;;;5014421;28;20038;-70
2022/08/15 05:39:28;;;;;;;27.42;11.00;;;22.80;99.90;;;;;;5014279;28;20276;-70
2022/08/15 05:42:10;;;;;;;15.10;10.63;;;22.60;99.90;;;;;;5012956;28;20096;-70
2022/08/15 05:44:50;;;;;;;13.23;11.10;;;22.90;99.90;;;;;;5018567;28;20044;-71
2022/08/15 05:47:31;;;;;;;18.83;11.77;;;22.80;99.90;;;;;;5027346;28;20064;-70
2022/08/15 05:50:14;;;;;;;13.38;11.25;;;22.80;99.90;;;;;;5031259;28;20042;-70
2022/08/15 05:53:13;;;;;;;12.00;10.70;;;22.90;99.90;;;;;;5029439;28;20125;-70
2022/08/15 05:55:48;;;;;;;21.63;12.45;;;23.10;99.90;;;;;;5030021;28;20037;-69
2022/08/15 05:58:42;;;;;;;17.65;11.73;;;24.10;99.90;;;;;;5012634;28;20033;-70
2022/08/15 06:01:23;;;;;;;15.00;12.13;;;23.00;99.90;;;;;;5025369;28;20045;-69
2022/08/15 06:03:58;;;;;;;14.30;11.50;;;23.20;99.90;;;;;;5016711;28;20045;-70
2022/08/15 06:06:29;;;;;;;22.42;12.25;;;23.00;99.90;;;;;;5033506;28;20045;-70
2022/08/15 06:09:01;;;;;;;16.00;11.50;;;23.90;99.90;;;;;;5027816;28;20088;-70
2022/08/15 06:11:45;;;;;;;17.60;12.25;;;21.90;99.90;;;;;;5026373;28;20040;-70
2022/08/15 06:14:34;;;;;;;15.57;12.10;;;23.70;99.90;;;;;;5030045;28;20079;-69
2022/08/15 06:17:06;;;;;;;11.60;10.10;;;23.60;99.90;;;;;;5004061;28;20503;-70
2022/08/15 06:19:37;;;;;;;14.38;12.10;;;23.10;99.90;;;;;;5031546;28;20072;-70
2022/08/15 06:22:41;;;;;;;11.65;10.38;;;23.50;99.90;;;;;;5032948;28;20045;-70
2022/08/15 06:26:05;;;;;;;19.30;10.88;;;23.10;99.90;;;;;;5032419;28;20049;-70
2022/08/15 06:28:49;;;;;;;12.10;10.35;;;23.30;99.90;;;;;;5009434;28;20120;-70
2022/08/15 06:31:31;;;;;;;13.70;10.45;;;23.20;99.90;;;;;;4999226;28;20038;-70
2022/08/15 06:34:06;;;;;;;13.43;10.98;;;23.50;99.90;;;;;;4998430;28;20096;-69
2022/08/15 06:36:51;;;;;;;14.77;11.40;;;24.40;99.90;;;;;;5011811;28;20037;-70
2022/08/15 06:39:47;;;;;;;15.25;11.20;;;24.10;99.90;;;;;;4995505;28;20044;-70
2022/08/15 06:42:29;;;;;;;13.43;12.02;;;23.60;99.90;;;;;;5031424;28;20042;-70
2022/08/15 06:44:59;;;;;;;13.15;10.25;;;24.30;99.90;;;;;;5032518;28;20414;-70
2022/08/15 06:47:28;;;;;;;13.75;10.85;;;23.50;99.90;;;;;;5031198;28;20063;-72
2022/08/15 06:50:10;;;;;;;12.73;10.63;;;24.40;99.90;;;;;;5016398;28;20038;-69
2022/08/15 06:52:36;;;;;;;13.02;11.38;;;23.80;99.90;;;;;;5008939;28;20096;-70
2022/08/15 06:55:02;;;;;;;13.82;11.60;;;23.90;99.90;;;;;;5015272;28;20041;-67
2022/08/15 06:57:39;;;;;;;13.48;11.60;;;23.90;99.90;;;;;;5004739;28;20128;-67
2022/08/15 07:00:15;;;;;;;14.80;11.57;;;23.90;99.90;;;;;;5030172;28;20674;-68
2022/08/15 07:02:57;;;;;;;14.20;11.77;;;24.00;99.90;;;;;;5027430;28;20395;-68
2022/08/15 07:05:36;;;;;;;13.70;11.20;;;24.10;99.90;;;;;;5051865;22;20580;-74
2022/08/15 07:08:30;;;;;;;14.50;10.13;;;24.40;99.90;;;;;;5013360;28;20068;-74
2022/08/15 07:11:09;;;;;;;11.68;9.95;;;25.40;99.90;;;;;;4984551;28;20071;-74
2022/08/15 07:13:58;;;;;;;11.23;9.48;;;25.70;99.90;;;;;;5049255;28;20616;-74
2022/08/15 07:16:50;;;;;;;11.38;9.65;;;25.30;99.90;;;;;;5049790;28;20036;-74
2022/08/15 07:19:16;;;;;;;13.68;10.13;;;24.50;99.90;;;;;;5032865;28;20040;-73
2022/08/15 07:21:43;;;;;;;14.35;10.75;;;26.20;99.90;;;;;;5045796;28;20068;-74
2022/08/15 07:24:17;;;;;;;11.35;9.77;;;24.40;99.90;;;;;;5022373;28;20103;-73
2022/08/15 07:26:55;;;;;;;10.48;9.25;;;24.50;99.90;;;;;;5039716;28;20037;-73
2022/08/15 07:29:47;;;;;;;11.18;9.25;;;24.50;99.90;;;;;;5047667;28;20040;-74
2022/08/15 07:32:25;;;;;;;12.30;9.52;;;24.60;99.90;;;;;;5038305;28;20102;-73
2022/08/15 07:35:17;;;;;;;15.57;11.00;;;24.70;99.90;;;;;;5026575;28;20112;-74
2022/08/15 07:37:49;;;;;;;10.23;9.23;;;25.80;99.90;;;;;;5028856;28;20124;-74
2022/08/15 07:40:25;;;;;;;11.68;10.48;;;25.10;99.90;;;;;;5033750;28;20091;-73
2022/08/15 07:42:52;;;;;;;16.67;8.90;;;25.30;99.90;;;;;;5037816;28;20475;-72
2022/08/15 07:45:19;;;;;;;12.00;8.85;;;25.60;99.90;;;;;;5029353;28;20082;-73
2022/08/15 07:48:05;;;;;;;9.73;8.75;;;25.40;99.90;;;;;;5050523;28;20041;-73
2022/08/15 07:50:41;;;;;;;12.80;9.88;;;25.50;99.90;;;;;;5040706;28;20522;-74
2022/08/15 07:53:16;;;;;;;10.73;8.63;;;25.70;99.90;;;;;;5048953;28;20037;-73
2022/08/15 07:56:04;;;;;;;11.10;9.13;;;26.50;99.90;;;;;;5048952;28;20036;-73
2022/08/15 07:58:32;;;;;;;10.32;8.63;;;26.00;99.90;;;;;;5029252;28;20458;-73
2022/08/15 08:01:25;;;;;;;13.75;9.07;;;26.00;99.90;;;;;;5030057;28;20435;-73
2022/08/15 08:04:13;;;;;;;11.88;8.93;;;26.10;99.50;;;;;;5030716;28;20030;-73
2022/08/15 08:06:50;;;;;;;9.82;8.57;;;26.20;99.50;;;;;;5030426;28;20045;-73
2022/08/15 08:09:24;;;;;;;10.07;8.82;;;26.20;99.00;;;;;;5039652;28;20041;-73
2022/08/15 08:12:01;;;;;;;9.98;8.32;;;26.30;99.50;;;;;;5042143;28;20044;-73
2022/08/15 08:15:02;;;;;;;10.13;8.60;;;26.60;99.50;;;;;;5042263;28;20438;-73
2022/08/15 08:17:57;;;;;;;11.07;9.25;;;26.60;99.80;;;;;;5042134;28;20108;-73
2022/08/15 08:20:22;;;;;;;11.75;8.82;;;27.30;99.60;;;;;;5042435;28;20037;-74
2022/08/15 08:23:01;;;;;;;9.90;8.77;;;26.40;99.40;;;;;;5044956;28;20730;-72
2022/08/15 08:25:42;;;;;;;9.55;7.70;;;26.50;99.00;;;;;;5035968;28;20048;-73
2022/08/15 08:28:27;;;;;;;10.18;8.50;;;26.60;99.30;;;;;;5047974;28;20411;-73
2022/08/15 08:30:54;;;;;;;11.55;8.18;;;26.70;99.10;;;;;;5054172;28;20562;-73
2022/08/15 08:33:28;;;;;;;10.00;8.30;;;26.80;99.40;;;;;;5053872;28;20044;-73
2022/08/15 08:36:20;;;;;;;9.63;8.43;;;26.90;99.20;;;;;;5054356;28;20051;-73
2022/08/15 08:38:50;;;;;;;11.57;8.68;;;27.00;99.20;;;;;;5054026;28;20116;-74
2022/08/15 08:41:45;;;;;;;9.00;8.10;;;26.70;98.60;;;;;;5055217;28;20065;-73
2022/08/15 08:44:19;;;;;;;9.77;7.57;;;26.80;97.60;;;;;;5053583;28;20044;-73
2022/08/15 08:47:06;;;;;;;11.10;7.78;;;27.00;97.50;;;;;;5054707;28;20574;-73
2022/08/15 08:49:47;;;;;;;8.45;6.95;;;27.10;97.30;;;;;;5053585;28;20051;-74
2022/08/15 08:52:32;;;;;;;7.72;6.90;;;27.20;96.60;;;;;;5053608;28;20055;-74
2022/08/15 08:55:22;;;;;;;8.63;7.55;;;27.60;97.20;;;;;;5054568;28;20047;-73
2022/08/15 08:58:02;;;;;;;8.20;7.40;;;27.40;97.10;;;;;;5043415;28;20040;-73
2022/08/15 09:00:37;;;;;;;11.35;8.27;;;27.30;97.00;;;;;;5033507;28;20052;-73
2022/08/15 09:03:11;;;;;;;9.73;8.73;;;27.80;98.00;;;;;;5033486;28;20099;-74
2022/08/15 09:05:42;;;;;;;12.38;9.45;;;27.40;98.40;;;;;;5032868;28;20057;-73
2022/08/15 09:08:18;;;;;;;10.65;9.55;;;26.80;97.60;;;;;;5033066;28;20087;-74
2022/08/15 09:10:48;;;;;;;11.73;9.05;;;27.40;98.30;;;;;;5050218;28;20553;-73
2022/08/15 09:13:34;;;;;;;11.18;9.82;;;27.40;98.20;;;;;;5053052;28;20041;-73
2022/08/15 09:16:16;;;;;;;10.50;8.77;;;27.50;97.90;;;;;;5054172;28;20048;-73
2022/08/15 09:18:59;;;;;;;11.10;9.60;;;27.70;98.00;;;;;;5032921;28;20029;-74
2022/08/15 09:21:25;;;;;;;10.57;9.48;;;28.60;98.60;;;;;;5037708;28;20390;-74
2022/08/15 09:23:51;;;;;;;14.40;9.75;;;28.00;98.30;;;;;;5052821;28;20029;-73
2022/08/15 09:26:41;;;;;;;13.00;9.80;;;28.20;98.20;;;;;;5054156;28;20041;-73
2022/08/15 09:29:27;;;;;;;13.18;9.20;;;28.10;97.50;;;;;;5044625;28;20094;-73
2022/08/15 09:32:29;;;;;;;10.75;9.00;;;28.20;97.50;;;;;;5042890;28;20124;-73
2022/08/15 09:35:16;;;;;;;11.93;9.40;;;28.30;97.10;;;;;;5048293;28;20049;-72
2022/08/15 09:37:41;;;;;;;12.10;10.15;;;28.00;97.30;;;;;;5032918;28;20045;-73
2022/08/15 09:40:32;;;;;;;11.80;9.10;;;28.60;98.00;;;;;;5031771;28;20045;-74
2022/08/15 09:43:18;;;;;;;12.75;9.80;;;28.40;97.50;;;;;;5041517;28;20091;-73
2022/08/15 09:46:24;;;;;;;10.93;8.45;;;28.60;98.50;;;;;;5053808;28;20049;-74
2022/08/15 09:49:16;;;;;;;11.25;9.88;;;29.10;98.00;;;;;;5052786;28;20072;-74
2022/08/15 09:51:59;;;;;;;11.32;9.90;;;28.70;97.40;;;;;;5051732;28;20059;-74
2022/08/15 09:54:28;;;;;;;12.93;8.73;;;28.80;97.10;;;;;;5053050;28;20075;-74
2022/08/15 09:57:19;;;;;;;12.80;9.65;;;28.90;97.70;;;;;;5039995;28;20033;-74
2022/08/15 09:59:55;;;;;;;11.77;9.98;;;28.70;97.00;;;;;;5032793;28;20505;-74
2022/08/15 10:02:28;;;;;;;11.40;10.30;;;28.80;97.10;;;;;;5041255;28;20112;-74
2022/08/15 10:04:55;;;;;;;;;;;28.70;97.40;;;;;;5031522;28;20041;-74
2022/08/15 10:07:48;;;;;;;11.07;9.60;;;28.70;97.50;;;;;;5037475;28;19923;-73
2022/08/15 10:10:21;;;;;;;;;;;28.80;96.90;;;;;;5034236;28;20666;-74
2022/08/15 10:13:26;;;;;;;13.48;10.20;;;28.70;97.70;;;;;;5031337;28;19928;-74
2022/08/15 10:15:53;;;;;;;10.93;9.73;;;28.60;97.30;;;;;;5032091;28;20471;-74
2022/08/15 10:18:22;;;;;;;11.50;10.30;;;28.90;97.40;;;;;;5040965;28;20041;-75
2022/08/15 10:20:58;;;;;;;11.90;10.70;;;28.80;97.50;;;;;;5052336;28;20040;-74
2022/08/15 10:23:46;;;;;;;14.85;10.43;;;28.60;97.60;;;;;;5053597;28;20112;-74
2022/08/15 10:26:21;;;;;;;11.50;10.30;;;28.50;97.90;;;;;;5050485;28;20077;-74
2022/08/15 10:29:17;;;;;;;11.60;9.98;;;28.50;97.50;;;;;;5052734;28;20041;-72
2022/08/15 10:31:50;;;;;;;10.30;9.20;;;28.60;97.60;;;;;;5032024;28;20060;-73
2022/08/15 10:34:59;;;;;;;12.43;10.00;;;29.00;97.70;;;;;;5045425;28;20048;-73
2022/08/15 10:37:30;;;;;;;14.02;9.43;;;28.50;97.40;;;;;;5038031;28;20041;-75
2022/08/15 10:40:19;;;;;;;23.48;10.20;;;28.70;97.70;;;;;;5032242;28;20108;-74
2022/08/15 10:43:14;;;;;;;13.73;11.70;;;28.60;97.60;;;;;;5034806;28;20096;-74
2022/08/15 10:46:17;;;;;;;12.85;10.85;;;28.30;97.50;;;;;;5025919;28;20041;-74
2022/08/15 10:49:08;;;;;;;13.80;10.30;;;28.20;97.40;;;;;;5036356;28;20045;-75
2022/08/15 10:51:49;;;;;;;12.35;9.80;;;28.10;97.60;;;;;;5062150;28;20056;-73
2022/08/15 10:54:15;;;;;;;14.00;9.40;;;27.90;97.30;;;;;;5062873;28;20075;-74
2022/08/15 10:56:42;;;;;;;9.90;8.90;;;28.00;97.70;;;;;;5055453;28;20036;-74
2022/08/15 10:59:35;;;;;;;10.43;9.02;;;28.40;98.00;;;;;;5053110;28;20060;-74
2022/08/15 11:02:21;;;;;;;10.27;9.35;;;28.00;97.40;;;;;;5039210;28;20135;-74
2022/08/15 11:04:48;;;;;;;10.10;9.10;;;27.90;97.30;;;;;;5047027;28;20051;-74
2022/08/15 11:07:30;;;;;;;10.30;9.30;;;28.00;97.60;;;;;;5047748;28;20163;-73
2022/08/15 11:10:00;;;;;;;;;;;27.90;97.90;;;;;;5045651;28;20044;-73
2022/08/15 11:12:31;;;;;;;13.05;9.82;;;27.50;97.60;;;;;;5044469;28;19968;-74
2022/08/15 11:15:04;;;;;;;11.30;9.77;;;27.80;98.10;;;;;;5046287;28;20037;-74
2022/08/15 11:17:33;;;;;;;11.05;9.73;;;27.80;98.50;;;;;;5034787;28;20025;-73
2022/08/15 11:20:14;;;;;;;13.07;9.05;;;27.70;98.40;;;;;;5045168;28;20038;-72
2022/08/15 11:22:48;;;;;;;10.75;9.38;;;27.40;98.40;;;;;;5042244;28;20047;-73
2022/08/15 11:25:19;;;;;;;12.60;9.27;;;27.50;99.10;;;;;;5042023;28;20041;-74
2022/08/15 11:28:02;;;;;;;11.30;10.10;;;27.30;99.40;;;;;;5041194;28;20036;-73
2022/08/15 11:30:30;;;;;;;12.13;10.38;;;27.80;99.90;;;;;;5043584;28;20772;-74
2022/08/15 11:33:18;;;;;;;15.23;10.55;;;27.70;99.90;;;;;;5041715;28;20033;-74
2022/08/15 11:35:44;;;;;;;12.60;9.70;;;27.20;99.90;;;;;;5037888;28;20029;-74
2022/08/15 11:38:12;;;;;;;14.27;10.95;;;25.50;99.90;;;;;;5041381;28;20048;-73
2022/08/15 11:40:41;;;;;;;13.25;10.48;;;27.20;99.90;;;;;;5050424;28;20045;-73
2022/08/15 11:43:15;;;;;;;12.77;11.48;;;27.20;99.90;;;;;;5049514;28;20139;-74
2022/08/15 11:45:46;;;;;;;11.85;10.52;;;27.10;99.90;;;;;;5049231;28;20068;-71
2022/08/15 11:48:18;;;;;;;12.35;10.40;;;27.60;99.90;;;;;;5048428;28;20037;-71
2022/08/15 11:51:01;;;;;;;12.57;11.27;;;27.80;99.90;;;;;;5050175;28;20067;-71
2022/08/15 11:53:32;;;;;;;13.60;11.65;;;27.90;99.90;;;;;;5050268;28;20495;-71
2022/08/15 11:55:58;;;;;;;13.60;10.15;;;28.10;99.90;;;;;;5033557;28;20037;-71
2022/08/15 11:58:38;;;;;;;13.32;11.93;;;28.10;99.90;;;;;;5050372;28;20041;-71
2022/08/15 12:01:39;;;;;;;16.33;12.18;;;28.10;99.90;;;;;;5050226;28;20108;-71
2022/08/15 12:04:07;;;;;;;13.88;12.27;;;28.00;99.90;;;;;;4993009;28;20064;-73
2022/08/15 12:06:36;;;;;;;16.40;13.30;;;28.10;99.90;;;;;;5013098;28;20061;-73
2022/08/15 12:09:19;;;;;;;14.38;12.05;;;28.10;99.90;;;;;;5029660;28;20079;-73
2022/08/15 12:11:50;;;;;;;15.60;13.02;;;27.80;99.70;;;;;;5049530;28;20092;-73
2022/08/15 12:14:23;;;;;;;16.80;12.57;;;28.00;99.90;;;;;;5030402;28;20464;-73
2022/08/15 12:16:51;;;;;;;17.10;13.98;;;27.80;99.40;;;;;;5030498;28;20084;-73
2022/08/15 12:19:34;;;;;;;15.23;13.63;;;27.70;99.90;;;;;;5030209;28;20045;-73
2022/08/15 12:22:14;;;;;;;14.60;12.02;;;27.70;99.40;;;;;;5038376;28;20072;-73
2022/08/15 12:24:43;;;;;;;16.08;13.73;;;27.80;99.40;;;;;;5050153;28;20088;-72
2022/08/15 12:27:10;;;;;;;11.68;10.35;;;28.10;99.90;;;;;;5051471;28;20116;-73
2022/08/15 12:29:37;;;;;;;15.23;11.35;;;28.10;99.80;;;;;;5051411;28;20048;-73
2022/08/15 12:32:05;;;;;;;17.17;14.35;;;27.70;99.90;;;;;;5050084;28;20087;-73
2022/08/15 12:34:41;;;;;;;17.23;12.88;;;27.50;99.60;;;;;;5033253;28;20098;-73
2022/08/15 12:37:10;;;;;;;15.18;11.88;;;27.60;99.30;;;;;;5050962;28;20040;-72
2022/08/15 12:39:51;;;;;;;17.52;13.55;;;27.50;99.70;;;;;;5047013;28;20133;-73
2022/08/15 12:42:24;;;;;;;12.80;11.40;;;27.60;99.70;;;;;;5049973;28;20047;-73
2022/08/15 12:44:53;;;;;;;8.45;6.03;;;27.50;99.00;;;;;;5046462;28;20447;-73
2022/08/15 12:47:20;;;;;;;8.27;5.97;;;27.50;98.20;;;;;;5041045;28;20033;-72
2022/08/15 12:49:46;;;;;;;12.10;6.57;;;27.60;98.10;;;;;;5048590;28;20037;-73
2022/08/15 12:52:12;;;;;;;7.65;6.05;;;27.60;98.20;;;;;;5051253;28;20041;-72
2022/08/15 12:54:38;;;;;;;10.07;6.47;;;27.40;98.30;;;;;;5054137;28;20044;-72
2022/08/15 12:57:04;;;;;;;8.90;6.30;;;27.40;98.20;;;;;;5054779;28;20037;-73
2022/08/15 12:59:30;;;;;;;8.82;6.10;;;27.70;98.20;;;;;;5054655;28;20521;-72
2022/08/15 13:01:57;;;;;;;8.10;5.40;;;28.60;98.40;;;;;;5036824;28;20045;-72
2022/08/15 13:04:23;;;;;;;8.68;5.47;;;27.80;98.00;;;;;;5053159;28;20040;-72
2022/08/15 13:06:52;;;;;;;8.07;5.38;;;28.20;97.80;;;;;;5054336;28;20051;-72
2022/08/15 13:09:23;;;;;;;9.70;5.60;;;28.00;97.50;;;;;;5053335;28;20102;-72
2022/08/15 13:11:48;;;;;;;8.27;5.03;;;28.70;97.50;;;;;;5054688;28;20120;-72